sensor_id;sensor_type;location;lat;lon;timestamp;P1;durP1;ratioP1;P2;durP2;ratioP2
8407;SDS011;4241;48.452;9.216;2022-08-21T00:01:25;368.07;;;173.43;;
8407;SDS011;4241;48.452;9.216;2022-08-21T00:03:55;373.07;;;174.20;;
8407;SDS011;4241;48.452;9.216;2022-08-21T00:06:22;369.20;;;172.30;;
8407;SDS011;4241;48.452;9.216;2022-08-21T00:08:53;375.83;;;175.97;;
8407;SDS011;4241;48.452;9.216;2022-08-21T00:11:19;369.97;;;173.07;;
8407;SDS011;4241;48.452;9.216;2022-08-21T00:13:46;376.87;;;175.90;;
8407;SDS011;4241;48.452;9.216;2022-08-21T00:16:13;377.43;;;174.83;;
8407;SDS011;4241;48.452;9.216;2022-08-21T00:18:40;382.87;;;175.70;;
8407;SDS011;4241;48.452;9.216;2022-08-21T00:21:10;385.80;;;178.63;;
8407;SDS011;4241;48.452;9.216;2022-08-21T00:23:37;393.57;;;176.80;;
8407;SDS011;4241;48.452;9.216;2022-08-21T00:26:04;404.73;;;181.07;;
8407;SDS011;4241;48.452;9.216;2022-08-21T00:28:32;420.00;;;191.57;;
8407;SDS011;4241;48.452;9.216;2022-08-21T00:30:59;416.57;;;185.70;;
8407;SDS011;4241;48.452;9.216;2022-08-21T00:33:29;413.23;;;178.50;;
8407;SDS011;4241;48.452;9.216;2022-08-21T00:35:56;414.63;;;181.30;;
8407;SDS011;4241;48.452;9.216;2022-08-21T00:38:25;420.27;;;186.33;;
8407;SDS011;4241;48.452;9.216;2022-08-21T00:40:53;414.80;;;178.63;;
8407;SDS011;4241;48.452;9.216;2022-08-21T00:43:24;410.67;;;176.53;;
8407;SDS011;4241;48.452;9.216;2022-08-21T00:45:53;415.87;;;183.60;;
8407;SDS011;4241;48.452;9.216;2022-08-21T00:48:20;419.43;;;183.20;;
8407;SDS011;4241;48.452;9.216;2022-08-21T00:50:48;416.43;;;182.10;;
8407;SDS011;4241;48.452;9.216;2022-08-21T00:53:20;414.53;;;179.97;;
8407;SDS011;4241;48.452;9.216;2022-08-21T00:55:49;412.27;;;175.70;;
8407;SDS011;4241;48.452;9.216;2022-08-21T00:58:17;412.90;;;177.13;;
8407;SDS011;4241;48.452;9.216;2022-08-21T01:00:46;419.40;;;184.13;;
8407;SDS011;4241;48.452;9.216;2022-08-21T01:03:18;413.37;;;177.23;;
8407;SDS011;4241;48.452;9.216;2022-08-21T01:05:46;412.13;;;178.00;;
8407;SDS011;4241;48.452;9.216;2022-08-21T01:08:13;415.67;;;180.80;;
8407;SDS011;4241;48.452;9.216;2022-08-21T01:10:42;409.40;;;174.13;;
8407;SDS011;4241;48.452;9.216;2022-08-21T01:13:11;412.87;;;177.13;;
8407;SDS011;4241;48.452;9.216;2022-08-21T01:15:42;407.47;;;172.30;;
8407;SDS011;4241;48.452;9.216;2022-08-21T01:18:12;413.40;;;178.27;;
8407;SDS011;4241;48.452;9.216;2022-08-21T01:20:41;412.03;;;175.70;;
8407;SDS011;4241;48.452;9.216;2022-08-21T01:23:11;406.83;;;170.17;;
8407;SDS011;4241;48.452;9.216;2022-08-21T01:25:38;405.23;;;174.93;;
8407;SDS011;4241;48.452;9.216;2022-08-21T01:28:06;403.60;;;168.63;;
8407;SDS011;4241;48.452;9.216;2022-08-21T01:30:39;407.57;;;174.10;;
8407;SDS011;4241;48.452;9.216;2022-08-21T01:33:08;408.13;;;172.30;;
8407;SDS011;4241;48.452;9.216;2022-08-21T01:35:35;409.00;;;173.80;;
8407;SDS011;4241;48.452;9.216;2022-08-21T01:38:02;407.53;;;171.80;;
8407;SDS011;4241;48.452;9.216;2022-08-21T01:40:30;412.73;;;176.77;;
8407;SDS011;4241;48.452;9.216;2022-08-21T01:42:57;408.00;;;169.40;;
8407;SDS011;4241;48.452;9.216;2022-08-21T01:45:24;411.77;;;174.23;;
8407;SDS011;4241;48.452;9.216;2022-08-21T01:47:51;409.23;;;172.63;;
8407;SDS011;4241;48.452;9.216;2022-08-21T01:50:18;409.47;;;168.10;;
8407;SDS011;4241;48.452;9.216;2022-08-21T01:52:46;410.17;;;173.40;;
8407;SDS011;4241;48.452;9.216;2022-08-21T01:55:13;406.27;;;170.83;;
8407;SDS011;4241;48.452;9.216;2022-08-21T01:57:42;408.10;;;170.40;;
8407;SDS011;4241;48.452;9.216;2022-08-21T02:00:11;408.07;;;172.17;;
8407;SDS011;4241;48.452;9.216;2022-08-21T02:02:40;410.20;;;171.63;;
8407;SDS011;4241;48.452;9.216;2022-08-21T02:05:08;406.17;;;165.30;;
8407;SDS011;4241;48.452;9.216;2022-08-21T02:07:36;408.63;;;171.10;;
8407;SDS011;4241;48.452;9.216;2022-08-21T02:10:05;406.73;;;168.83;;
8407;SDS011;4241;48.452;9.216;2022-08-21T02:12:34;407.03;;;171.83;;
8407;SDS011;4241;48.452;9.216;2022-08-21T02:15:02;413.97;;;175.73;;
8407;SDS011;4241;48.452;9.216;2022-08-21T02:17:36;407.13;;;167.93;;
8407;SDS011;4241;48.452;9.216;2022-08-21T02:20:05;406.80;;;170.20;;
8407;SDS011;4241;48.452;9.216;2022-08-21T02:22:32;404.90;;;169.00;;
8407;SDS011;4241;48.452;9.216;2022-08-21T02:24:59;408.07;;;172.40;;
8407;SDS011;4241;48.452;9.216;2022-08-21T02:27:26;407.33;;;167.87;;
8407;SDS011;4241;48.452;9.216;2022-08-21T02:29:53;411.17;;;174.07;;
8407;SDS011;4241;48.452;9.216;2022-08-21T02:32:23;408.90;;;167.10;;
8407;SDS011;4241;48.452;9.216;2022-08-21T02:34:51;408.97;;;170.23;;
8407;SDS011;4241;48.452;9.216;2022-08-21T02:37:17;411.63;;;171.07;;
8407;SDS011;4241;48.452;9.216;2022-08-21T02:39:44;408.33;;;166.97;;
8407;SDS011;4241;48.452;9.216;2022-08-21T02:42:11;407.67;;;165.00;;
8407;SDS011;4241;48.452;9.216;2022-08-21T02:44:38;410.17;;;170.03;;
8407;SDS011;4241;48.452;9.216;2022-08-21T02:47:05;407.77;;;169.33;;
8407;SDS011;4241;48.452;9.216;2022-08-21T02:49:33;408.97;;;169.10;;
8407;SDS011;4241;48.452;9.216;2022-08-21T02:52:00;407.03;;;167.97;;
8407;SDS011;4241;48.452;9.216;2022-08-21T02:54:27;405.87;;;168.87;;
8407;SDS011;4241;48.452;9.216;2022-08-21T02:56:54;409.07;;;168.60;;
8407;SDS011;4241;48.452;9.216;2022-08-21T02:59:21;405.00;;;164.17;;
8407;SDS011;4241;48.452;9.216;2022-08-21T03:01:47;407.87;;;168.93;;
8407;SDS011;4241;48.452;9.216;2022-08-21T03:04:14;405.47;;;167.90;;
8407;SDS011;4241;48.452;9.216;2022-08-21T03:06:43;406.20;;;166.23;;
8407;SDS011;4241;48.452;9.216;2022-08-21T03:09:09;405.40;;;167.77;;
8407;SDS011;4241;48.452;9.216;2022-08-21T03:11:36;403.23;;;165.00;;
8407;SDS011;4241;48.452;9.216;2022-08-21T03:14:03;403.23;;;165.60;;
8407;SDS011;4241;48.452;9.216;2022-08-21T03:16:30;404.00;;;167.23;;
8407;SDS011;4241;48.452;9.216;2022-08-21T03:18:57;401.67;;;164.00;;
8407;SDS011;4241;48.452;9.216;2022-08-21T03:21:24;404.90;;;167.43;;
8407;SDS011;4241;48.452;9.216;2022-08-21T03:23:52;403.23;;;167.07;;
8407;SDS011;4241;48.452;9.216;2022-08-21T03:26:20;405.47;;;170.07;;
8407;SDS011;4241;48.452;9.216;2022-08-21T03:28:46;403.13;;;167.67;;
8407;SDS011;4241;48.452;9.216;2022-08-21T03:31:13;398.97;;;163.07;;
8407;SDS011;4241;48.452;9.216;2022-08-21T03:33:40;401.53;;;164.33;;
8407;SDS011;4241;48.452;9.216;2022-08-21T03:36:10;400.00;;;162.90;;
8407;SDS011;4241;48.452;9.216;2022-08-21T03:38:37;406.07;;;166.20;;
8407;SDS011;4241;48.452;9.216;2022-08-21T03:41:07;401.10;;;163.93;;
8407;SDS011;4241;48.452;9.216;2022-08-21T03:43:34;397.30;;;160.13;;
8407;SDS011;4241;48.452;9.216;2022-08-21T03:46:02;398.87;;;162.07;;
8407;SDS011;4241;48.452;9.216;2022-08-21T03:48:31;397.80;;;162.50;;
8407;SDS011;4241;48.452;9.216;2022-08-21T03:50:58;399.27;;;163.60;;
8407;SDS011;4241;48.452;9.216;2022-08-21T03:53:25;396.83;;;159.23;;
8407;SDS011;4241;48.452;9.216;2022-08-21T03:55:52;398.00;;;160.13;;
8407;SDS011;4241;48.452;9.216;2022-08-21T03:58:22;401.50;;;164.30;;
8407;SDS011;4241;48.452;9.216;2022-08-21T04:00:52;397.20;;;159.47;;
8407;SDS011;4241;48.452;9.216;2022-08-21T04:03:21;393.27;;;157.80;;
8407;SDS011;4241;48.452;9.216;2022-08-21T04:05:48;397.50;;;159.73;;
8407;SDS011;4241;48.452;9.216;2022-08-21T04:08:15;397.30;;;159.07;;
8407;SDS011;4241;48.452;9.216;2022-08-21T04:10:43;391.87;;;155.73;;
8407;SDS011;4241;48.452;9.216;2022-08-21T04:13:12;395.83;;;157.00;;
8407;SDS011;4241;48.452;9.216;2022-08-21T04:15:41;392.33;;;156.20;;
8407;SDS011;4241;48.452;9.216;2022-08-21T04:18:08;396.17;;;157.80;;
8407;SDS011;4241;48.452;9.216;2022-08-21T04:20:34;392.60;;;157.47;;
8407;SDS011;4241;48.452;9.216;2022-08-21T04:23:02;392.97;;;156.73;;
8407;SDS011;4241;48.452;9.216;2022-08-21T04:25:29;392.20;;;156.27;;
8407;SDS011;4241;48.452;9.216;2022-08-21T04:27:56;391.43;;;154.03;;
8407;SDS011;4241;48.452;9.216;2022-08-21T04:30:23;391.40;;;156.83;;
8407;SDS011;4241;48.452;9.216;2022-08-21T04:32:52;391.03;;;156.37;;
8407;SDS011;4241;48.452;9.216;2022-08-21T04:35:20;389.20;;;157.10;;
8407;SDS011;4241;48.452;9.216;2022-08-21T04:37:48;388.93;;;154.10;;
8407;SDS011;4241;48.452;9.216;2022-08-21T04:40:16;392.47;;;155.67;;
8407;SDS011;4241;48.452;9.216;2022-08-21T04:42:45;388.87;;;151.97;;
8407;SDS011;4241;48.452;9.216;2022-08-21T04:45:18;391.30;;;154.80;;
8407;SDS011;4241;48.452;9.216;2022-08-21T04:47:52;390.83;;;155.37;;
8407;SDS011;4241;48.452;9.216;2022-08-21T04:50:20;389.17;;;155.27;;
8407;SDS011;4241;48.452;9.216;2022-08-21T04:52:50;390.37;;;156.33;;
8407;SDS011;4241;48.452;9.216;2022-08-21T04:55:18;388.90;;;154.50;;
8407;SDS011;4241;48.452;9.216;2022-08-21T04:57:46;390.27;;;153.77;;
8407;SDS011;4241;48.452;9.216;2022-08-21T05:00:15;390.53;;;154.80;;
8407;SDS011;4241;48.452;9.216;2022-08-21T05:02:43;390.27;;;153.80;;
8407;SDS011;4241;48.452;9.216;2022-08-21T05:05:13;389.97;;;152.73;;
8407;SDS011;4241;48.452;9.216;2022-08-21T05:07:41;389.97;;;154.80;;
8407;SDS011;4241;48.452;9.216;2022-08-21T05:10:10;393.07;;;155.30;;
8407;SDS011;4241;48.452;9.216;2022-08-21T05:12:39;393.13;;;156.67;;
8407;SDS011;4241;48.452;9.216;2022-08-21T05:15:07;392.83;;;157.37;;
8407;SDS011;4241;48.452;9.216;2022-08-21T05:17:36;397.17;;;158.90;;
8407;SDS011;4241;48.452;9.216;2022-08-21T05:20:03;397.40;;;158.23;;
8407;SDS011;4241;48.452;9.216;2022-08-21T05:22:32;402.80;;;162.57;;
8407;SDS011;4241;48.452;9.216;2022-08-21T05:24:59;394.77;;;157.20;;
8407;SDS011;4241;48.452;9.216;2022-08-21T05:27:26;381.27;;;153.83;;
8407;SDS011;4241;48.452;9.216;2022-08-21T05:29:54;387.00;;;156.33;;
8407;SDS011;4241;48.452;9.216;2022-08-21T05:32:21;391.53;;;156.40;;
8407;SDS011;4241;48.452;9.216;2022-08-21T05:34:49;395.27;;;156.77;;
8407;SDS011;4241;48.452;9.216;2022-08-21T05:37:15;397.97;;;161.30;;
8407;SDS011;4241;48.452;9.216;2022-08-21T05:39:44;394.73;;;157.70;;
8407;SDS011;4241;48.452;9.216;2022-08-21T05:42:11;401.60;;;161.87;;
8407;SDS011;4241;48.452;9.216;2022-08-21T05:44:38;399.57;;;161.77;;
8407;SDS011;4241;48.452;9.216;2022-08-21T05:47:05;398.33;;;163.13;;
8407;SDS011;4241;48.452;9.216;2022-08-21T05:49:33;393.40;;;160.43;;
8407;SDS011;4241;48.452;9.216;2022-08-21T05:52:00;399.60;;;163.50;;
8407;SDS011;4241;48.452;9.216;2022-08-21T05:54:27;401.83;;;164.13;;
8407;SDS011;4241;48.452;9.216;2022-08-21T05:56:56;404.80;;;167.30;;
8407;SDS011;4241;48.452;9.216;2022-08-21T05:59:22;403.53;;;163.17;;
8407;SDS011;4241;48.452;9.216;2022-08-21T06:01:49;402.87;;;162.83;;
8407;SDS011;4241;48.452;9.216;2022-08-21T06:04:17;404.97;;;165.40;;
8407;SDS011;4241;48.452;9.216;2022-08-21T06:06:44;408.97;;;167.60;;
8407;SDS011;4241;48.452;9.216;2022-08-21T06:09:12;408.80;;;166.17;;
8407;SDS011;4241;48.452;9.216;2022-08-21T06:11:39;409.07;;;167.23;;
8407;SDS011;4241;48.452;9.216;2022-08-21T06:14:07;409.63;;;167.73;;
8407;SDS011;4241;48.452;9.216;2022-08-21T06:16:34;409.07;;;166.43;;
8407;SDS011;4241;48.452;9.216;2022-08-21T06:19:01;412.80;;;170.00;;
8407;SDS011;4241;48.452;9.216;2022-08-21T06:21:28;413.53;;;170.23;;
8407;SDS011;4241;48.452;9.216;2022-08-21T06:23:54;412.17;;;168.90;;
8407;SDS011;4241;48.452;9.216;2022-08-21T06:26:21;415.33;;;171.30;;
8407;SDS011;4241;48.452;9.216;2022-08-21T06:28:49;418.27;;;171.87;;
8407;SDS011;4241;48.452;9.216;2022-08-21T06:31:18;418.07;;;172.33;;
8407;SDS011;4241;48.452;9.216;2022-08-21T06:33:47;421.10;;;174.43;;
8407;SDS011;4241;48.452;9.216;2022-08-21T06:36:14;420.77;;;173.67;;
8407;SDS011;4241;48.452;9.216;2022-08-21T06:38:41;424.03;;;176.23;;
8407;SDS011;4241;48.452;9.216;2022-08-21T06:41:08;426.93;;;178.47;;
8407;SDS011;4241;48.452;9.216;2022-08-21T06:43:35;428.23;;;179.77;;
8407;SDS011;4241;48.452;9.216;2022-08-21T06:46:02;429.43;;;179.50;;
8407;SDS011;4241;48.452;9.216;2022-08-21T06:48:31;431.40;;;180.57;;
8407;SDS011;4241;48.452;9.216;2022-08-21T06:50:59;430.50;;;182.07;;
8407;SDS011;4241;48.452;9.216;2022-08-21T06:53:26;432.97;;;182.63;;
8407;SDS011;4241;48.452;9.216;2022-08-21T06:55:52;438.07;;;186.50;;
8407;SDS011;4241;48.452;9.216;2022-08-21T06:58:19;444.33;;;193.13;;
8407;SDS011;4241;48.452;9.216;2022-08-21T07:00:47;441.03;;;188.17;;
8407;SDS011;4241;48.452;9.216;2022-08-21T07:03:17;444.33;;;190.43;;
8407;SDS011;4241;48.452;9.216;2022-08-21T07:05:47;446.27;;;191.63;;
8407;SDS011;4241;48.452;9.216;2022-08-21T07:08:14;452.67;;;199.30;;
8407;SDS011;4241;48.452;9.216;2022-08-21T07:10:41;449.60;;;194.20;;
8407;SDS011;4241;48.452;9.216;2022-08-21T07:13:08;453.50;;;197.67;;
8407;SDS011;4241;48.452;9.216;2022-08-21T07:15:35;453.90;;;199.53;;
8407;SDS011;4241;48.452;9.216;2022-08-21T07:18:02;456.97;;;201.37;;
8407;SDS011;4241;48.452;9.216;2022-08-21T07:20:29;457.57;;;202.97;;
8407;SDS011;4241;48.452;9.216;2022-08-21T07:22:59;458.90;;;203.37;;
8407;SDS011;4241;48.452;9.216;2022-08-21T07:25:28;459.23;;;208.63;;
8407;SDS011;4241;48.452;9.216;2022-08-21T07:27:54;462.27;;;211.30;;
8407;SDS011;4241;48.452;9.216;2022-08-21T07:30:22;464.93;;;212.27;;
8407;SDS011;4241;48.452;9.216;2022-08-21T07:32:50;472.93;;;220.27;;
8407;SDS011;4241;48.452;9.216;2022-08-21T07:35:17;468.33;;;217.33;;
8407;SDS011;4241;48.452;9.216;2022-08-21T07:37:45;470.03;;;215.37;;
8407;SDS011;4241;48.452;9.216;2022-08-21T07:40:14;471.13;;;219.10;;
8407;SDS011;4241;48.452;9.216;2022-08-21T07:42:42;474.30;;;222.93;;
8407;SDS011;4241;48.452;9.216;2022-08-21T07:45:10;475.23;;;225.37;;
8407;SDS011;4241;48.452;9.216;2022-08-21T07:47:38;477.53;;;227.83;;
8407;SDS011;4241;48.452;9.216;2022-08-21T07:50:05;476.73;;;227.83;;
8407;SDS011;4241;48.452;9.216;2022-08-21T07:52:32;477.70;;;229.83;;
8407;SDS011;4241;48.452;9.216;2022-08-21T07:54:59;487.70;;;234.87;;
8407;SDS011;4241;48.452;9.216;2022-08-21T07:57:28;483.23;;;232.47;;
8407;SDS011;4241;48.452;9.216;2022-08-21T07:59:54;488.87;;;242.73;;
8407;SDS011;4241;48.452;9.216;2022-08-21T08:02:22;485.77;;;240.97;;
8407;SDS011;4241;48.452;9.216;2022-08-21T08:04:50;485.60;;;243.57;;
8407;SDS011;4241;48.452;9.216;2022-08-21T08:07:17;491.73;;;249.37;;
8407;SDS011;4241;48.452;9.216;2022-08-21T08:09:44;488.20;;;249.87;;
8407;SDS011;4241;48.452;9.216;2022-08-21T08:12:11;488.43;;;250.07;;
8407;SDS011;4241;48.452;9.216;2022-08-21T08:14:40;490.93;;;253.97;;
8407;SDS011;4241;48.452;9.216;2022-08-21T08:17:08;490.47;;;255.40;;
8407;SDS011;4241;48.452;9.216;2022-08-21T08:19:35;491.53;;;258.67;;
8407;SDS011;4241;48.452;9.216;2022-08-21T08:22:11;491.87;;;260.13;;
8407;SDS011;4241;48.452;9.216;2022-08-21T08:24:39;492.63;;;264.67;;
8407;SDS011;4241;48.452;9.216;2022-08-21T08:27:06;493.47;;;266.93;;
8407;SDS011;4241;48.452;9.216;2022-08-21T08:29:33;495.37;;;269.43;;
8407;SDS011;4241;48.452;9.216;2022-08-21T08:32:01;496.43;;;274.70;;
8407;SDS011;4241;48.452;9.216;2022-08-21T08:34:29;495.73;;;276.03;;
8407;SDS011;4241;48.452;9.216;2022-08-21T08:36:56;497.47;;;281.33;;
8407;SDS011;4241;48.452;9.216;2022-08-21T08:39:24;496.47;;;282.27;;
8407;SDS011;4241;48.452;9.216;2022-08-21T08:41:51;499.17;;;286.50;;
8407;SDS011;4241;48.452;9.216;2022-08-21T08:44:25;498.77;;;287.60;;
8407;SDS011;4241;48.452;9.216;2022-08-21T08:46:52;499.93;;;292.80;;
8407;SDS011;4241;48.452;9.216;2022-08-21T08:49:23;499.67;;;294.80;;
8407;SDS011;4241;48.452;9.216;2022-08-21T08:51:57;502.10;;;300.47;;
8407;SDS011;4241;48.452;9.216;2022-08-21T08:54:28;501.27;;;299.17;;
8407;SDS011;4241;48.452;9.216;2022-08-21T08:56:58;501.50;;;304.83;;
8407;SDS011;4241;48.452;9.216;2022-08-21T08:59:27;502.67;;;305.77;;
8407;SDS011;4241;48.452;9.216;2022-08-21T09:02:02;499.50;;;301.23;;
8407;SDS011;4241;48.452;9.216;2022-08-21T09:04:31;504.07;;;307.53;;
8407;SDS011;4241;48.452;9.216;2022-08-21T09:07:01;502.67;;;306.93;;
8407;SDS011;4241;48.452;9.216;2022-08-21T09:09:42;501.80;;;309.50;;
8407;SDS011;4241;48.452;9.216;2022-08-21T09:12:25;501.67;;;310.10;;
8407;SDS011;4241;48.452;9.216;2022-08-21T09:15:02;504.83;;;313.67;;
8407;SDS011;4241;48.452;9.216;2022-08-21T09:17:40;503.17;;;316.17;;
8407;SDS011;4241;48.452;9.216;2022-08-21T09:20:22;503.03;;;317.33;;
8407;SDS011;4241;48.452;9.216;2022-08-21T09:22:58;504.50;;;321.57;;
8407;SDS011;4241;48.452;9.216;2022-08-21T09:25:43;510.57;;;330.63;;
8407;SDS011;4241;48.452;9.216;2022-08-21T09:28:17;506.90;;;330.07;;
8407;SDS011;4241;48.452;9.216;2022-08-21T09:30:44;505.87;;;328.97;;
8407;SDS011;4241;48.452;9.216;2022-08-21T09:33:11;506.60;;;333.00;;
8407;SDS011;4241;48.452;9.216;2022-08-21T09:35:48;507.07;;;334.47;;
8407;SDS011;4241;48.452;9.216;2022-08-21T09:38:24;512.43;;;340.93;;
8407;SDS011;4241;48.452;9.216;2022-08-21T09:40:55;507.63;;;337.93;;
8407;SDS011;4241;48.452;9.216;2022-08-21T09:43:25;506.83;;;338.00;;
8407;SDS011;4241;48.452;9.216;2022-08-21T09:46:01;507.50;;;339.47;;
8407;SDS011;4241;48.452;9.216;2022-08-21T09:48:37;514.40;;;349.20;;
8407;SDS011;4241;48.452;9.216;2022-08-21T09:51:09;507.00;;;342.70;;
8407;SDS011;4241;48.452;9.216;2022-08-21T09:53:38;506.87;;;343.57;;
8407;SDS011;4241;48.452;9.216;2022-08-21T09:56:16;509.20;;;344.40;;
8407;SDS011;4241;48.452;9.216;2022-08-21T09:59:12;508.30;;;348.73;;
8407;SDS011;4241;48.452;9.216;2022-08-21T10:01:42;509.00;;;347.23;;
8407;SDS011;4241;48.452;9.216;2022-08-21T10:04:10;508.70;;;353.33;;
8407;SDS011;4241;48.452;9.216;2022-08-21T10:06:40;510.13;;;351.13;;
8407;SDS011;4241;48.452;9.216;2022-08-21T10:09:08;507.93;;;350.47;;
8407;SDS011;4241;48.452;9.216;2022-08-21T10:11:36;511.70;;;359.70;;
8407;SDS011;4241;48.452;9.216;2022-08-21T10:14:06;509.90;;;354.27;;
8407;SDS011;4241;48.452;9.216;2022-08-21T10:16:42;512.15;;;357.20;;
8407;SDS011;4241;48.452;9.216;2022-08-21T10:19:19;508.23;;;355.70;;
8407;SDS011;4241;48.452;9.216;2022-08-21T10:21:58;510.03;;;357.00;;
8407;SDS011;4241;48.452;9.216;2022-08-21T10:24:36;513.60;;;359.60;;
8407;SDS011;4241;48.452;9.216;2022-08-21T10:27:21;518.10;;;365.20;;
8407;SDS011;4241;48.452;9.216;2022-08-21T10:29:54;511.13;;;362.67;;
8407;SDS011;4241;48.452;9.216;2022-08-21T10:32:31;511.93;;;359.73;;
8407;SDS011;4241;48.452;9.216;2022-08-21T10:35:08;509.50;;;358.70;;
8407;SDS011;4241;48.452;9.216;2022-08-21T10:37:43;509.13;;;358.27;;
8407;SDS011;4241;48.452;9.216;2022-08-21T10:40:22;506.98;;;355.85;;
8407;SDS011;4241;48.452;9.216;2022-08-21T10:42:58;509.13;;;359.20;;
8407;SDS011;4241;48.452;9.216;2022-08-21T10:45:36;508.15;;;356.92;;
8407;SDS011;4241;48.452;9.216;2022-08-21T10:48:13;510.13;;;359.00;;
8407;SDS011;4241;48.452;9.216;2022-08-21T10:50:47;508.92;;;359.90;;
8407;SDS011;4241;48.452;9.216;2022-08-21T10:53:26;511.30;;;366.13;;
8407;SDS011;4241;48.452;9.216;2022-08-21T10:56:02;507.00;;;358.27;;
8407;SDS011;4241;48.452;9.216;2022-08-21T10:58:38;513.10;;;367.95;;
8407;SDS011;4241;48.452;9.216;2022-08-21T11:01:11;511.90;;;369.75;;
8407;SDS011;4241;48.452;9.216;2022-08-21T11:03:41;511.27;;;367.35;;
8407;SDS011;4241;48.452;9.216;2022-08-21T11:06:13;513.58;;;369.63;;
8407;SDS011;4241;48.452;9.216;2022-08-21T11:08:46;512.50;;;373.45;;
8407;SDS011;4241;48.452;9.216;2022-08-21T11:11:18;510.05;;;368.15;;
8407;SDS011;4241;48.452;9.216;2022-08-21T11:13:51;510.08;;;369.00;;
8407;SDS011;4241;48.452;9.216;2022-08-21T11:16:24;511.05;;;371.27;;
8407;SDS011;4241;48.452;9.216;2022-08-21T11:18:58;510.13;;;370.70;;
8407;SDS011;4241;48.452;9.216;2022-08-21T11:21:33;509.92;;;368.55;;
8407;SDS011;4241;48.452;9.216;2022-08-21T11:24:22;510.40;;;368.75;;
8407;SDS011;4241;48.452;9.216;2022-08-21T11:26:57;509.65;;;368.95;;
8407;SDS011;4241;48.452;9.216;2022-08-21T11:29:27;510.75;;;371.38;;
8407;SDS011;4241;48.452;9.216;2022-08-21T11:32:03;512.65;;;374.05;;
8407;SDS011;4241;48.452;9.216;2022-08-21T11:34:47;512.65;;;379.05;;
8407;SDS011;4241;48.452;9.216;2022-08-21T11:37:28;511.63;;;377.30;;
8407;SDS011;4241;48.452;9.216;2022-08-21T11:40:11;511.20;;;380.77;;
8407;SDS011;4241;48.452;9.216;2022-08-21T11:42:46;513.00;;;383.33;;
8407;SDS011;4241;48.452;9.216;2022-08-21T11:45:22;512.97;;;383.70;;
8407;SDS011;4241;48.452;9.216;2022-08-21T11:47:54;514.20;;;387.92;;
8407;SDS011;4241;48.452;9.216;2022-08-21T11:50:27;517.65;;;390.67;;
8407;SDS011;4241;48.452;9.216;2022-08-21T11:52:56;514.85;;;390.25;;
8407;SDS011;4241;48.452;9.216;2022-08-21T11:55:30;514.30;;;395.98;;
8407;SDS011;4241;48.452;9.216;2022-08-21T11:58:04;511.25;;;384.40;;
8407;SDS011;4241;48.452;9.216;2022-08-21T12:00:42;513.97;;;389.67;;
8407;SDS011;4241;48.452;9.216;2022-08-21T12:03:13;513.88;;;390.38;;
8407;SDS011;4241;48.452;9.216;2022-08-21T12:05:42;513.85;;;393.17;;
8407;SDS011;4241;48.452;9.216;2022-08-21T12:08:26;515.13;;;392.95;;
8407;SDS011;4241;48.452;9.216;2022-08-21T12:11:01;515.45;;;393.08;;
8407;SDS011;4241;48.452;9.216;2022-08-21T12:13:32;514.35;;;391.65;;
8407;SDS011;4241;48.452;9.216;2022-08-21T12:16:08;514.85;;;395.13;;
8407;SDS011;4241;48.452;9.216;2022-08-21T12:18:36;517.65;;;396.95;;
8407;SDS011;4241;48.452;9.216;2022-08-21T12:21:05;514.45;;;399.95;;
8407;SDS011;4241;48.452;9.216;2022-08-21T12:23:46;513.45;;;389.33;;
8407;SDS011;4241;48.452;9.216;2022-08-21T12:26:23;512.58;;;388.80;;
8407;SDS011;4241;48.452;9.216;2022-08-21T12:29:07;515.33;;;391.15;;
8407;SDS011;4241;48.452;9.216;2022-08-21T12:31:47;513.88;;;387.45;;
8407;SDS011;4241;48.452;9.216;2022-08-21T12:34:23;512.90;;;388.95;;
8407;SDS011;4241;48.452;9.216;2022-08-21T12:36:57;515.00;;;398.60;;
8407;SDS011;4241;48.452;9.216;2022-08-21T12:39:27;512.80;;;391.15;;
8407;SDS011;4241;48.452;9.216;2022-08-21T12:41:59;513.83;;;389.60;;
8407;SDS011;4241;48.452;9.216;2022-08-21T12:44:34;512.65;;;386.77;;
8407;SDS011;4241;48.452;9.216;2022-08-21T12:47:11;514.03;;;388.30;;
8407;SDS011;4241;48.452;9.216;2022-08-21T12:49:43;511.80;;;385.20;;
8407;SDS011;4241;48.452;9.216;2022-08-21T12:52:19;512.47;;;387.65;;
8407;SDS011;4241;48.452;9.216;2022-08-21T12:54:48;513.65;;;387.50;;
8407;SDS011;4241;48.452;9.216;2022-08-21T12:57:20;515.28;;;391.13;;
8407;SDS011;4241;48.452;9.216;2022-08-21T12:59:53;512.95;;;387.70;;
8407;SDS011;4241;48.452;9.216;2022-08-21T13:02:23;512.30;;;386.75;;
8407;SDS011;4241;48.452;9.216;2022-08-21T13:04:51;512.33;;;387.23;;
8407;SDS011;4241;48.452;9.216;2022-08-21T13:07:22;513.30;;;387.95;;
8407;SDS011;4241;48.452;9.216;2022-08-21T13:09:54;513.33;;;389.02;;
8407;SDS011;4241;48.452;9.216;2022-08-21T13:12:27;512.13;;;386.30;;
8407;SDS011;4241;48.452;9.216;2022-08-21T13:14:55;516.10;;;396.33;;
8407;SDS011;4241;48.452;9.216;2022-08-21T13:17:24;515.60;;;393.20;;
8407;SDS011;4241;48.452;9.216;2022-08-21T13:19:53;513.72;;;391.00;;
8407;SDS011;4241;48.452;9.216;2022-08-21T13:22:21;515.35;;;393.48;;
8407;SDS011;4241;48.452;9.216;2022-08-21T13:24:48;516.50;;;389.65;;
8407;SDS011;4241;48.452;9.216;2022-08-21T13:27:18;515.20;;;388.02;;
8407;SDS011;4241;48.452;9.216;2022-08-21T13:29:59;513.95;;;385.95;;
8407;SDS011;4241;48.452;9.216;2022-08-21T13:32:28;514.08;;;384.30;;
8407;SDS011;4241;48.452;9.216;2022-08-21T13:34:58;518.83;;;392.33;;
8407;SDS011;4241;48.452;9.216;2022-08-21T13:37:25;512.53;;;378.35;;
8407;SDS011;4241;48.452;9.216;2022-08-21T13:39:54;512.50;;;378.13;;
8407;SDS011;4241;48.452;9.216;2022-08-21T13:42:21;512.08;;;378.88;;
8407;SDS011;4241;48.452;9.216;2022-08-21T13:44:50;514.20;;;377.80;;
8407;SDS011;4241;48.452;9.216;2022-08-21T13:47:20;511.05;;;375.08;;
8407;SDS011;4241;48.452;9.216;2022-08-21T13:49:47;509.90;;;372.42;;
8407;SDS011;4241;48.452;9.216;2022-08-21T13:52:19;510.38;;;370.77;;
8407;SDS011;4241;48.452;9.216;2022-08-21T13:54:51;508.48;;;366.27;;
8407;SDS011;4241;48.452;9.216;2022-08-21T13:57:24;514.50;;;371.80;;
8407;SDS011;4241;48.452;9.216;2022-08-21T14:02:48;513.47;;;368.77;;
8407;SDS011;4241;48.452;9.216;2022-08-21T14:05:19;516.53;;;371.63;;
8407;SDS011;4241;48.452;9.216;2022-08-21T14:07:51;516.20;;;366.27;;
8407;SDS011;4241;48.452;9.216;2022-08-21T14:10:26;513.88;;;367.25;;
8407;SDS011;4241;48.452;9.216;2022-08-21T14:12:58;513.83;;;364.75;;
8407;SDS011;4241;48.452;9.216;2022-08-21T14:15:29;512.40;;;361.35;;
8407;SDS011;4241;48.452;9.216;2022-08-21T14:18:08;515.22;;;364.65;;
8407;SDS011;4241;48.452;9.216;2022-08-21T14:20:39;512.47;;;362.10;;
8407;SDS011;4241;48.452;9.216;2022-08-21T14:23:06;509.17;;;357.67;;
8407;SDS011;4241;48.452;9.216;2022-08-21T14:25:37;512.67;;;362.33;;
8407;SDS011;4241;48.452;9.216;2022-08-21T14:28:10;533.58;;;374.20;;
8407;SDS011;4241;48.452;9.216;2022-08-21T14:30:42;512.33;;;358.40;;
8407;SDS011;4241;48.452;9.216;2022-08-21T14:33:13;509.97;;;351.93;;
8407;SDS011;4241;48.452;9.216;2022-08-21T14:35:44;509.93;;;352.20;;
8407;SDS011;4241;48.452;9.216;2022-08-21T14:38:11;514.40;;;358.30;;
8407;SDS011;4241;48.452;9.216;2022-08-21T14:40:39;511.20;;;352.63;;